Time;durP1;ratioP1;P1;durP2;ratioP2;P2;SDS_P1;SDS_P2;PMS_P1;PMS_P2;Temp;Humidity;BMP_temperature;BMP_pressure;BME280_temperature;BME280_humidity;BME280_pressure;Samples;Min_cycle;Max_cycle;Signal;HPM_P1;HPM_P2
2021/06/03 00:01:43;;;;;;;9.50;6.80;;;;;;;13.52;74.63;98316.50;5128185;27;20198;-72
2021/06/03 00:04:11;;;;;;;6.40;6.00;;;;;;;13.44;74.26;98313.88;5117344;27;20228;-70
2021/06/03 00:06:39;;;;;;;7.77;7.07;;;;;;;13.54;73.66;98317.16;5117961;27;20425;-71
2021/06/03 00:09:09;;;;;;;6.97;6.57;;;;;;;13.44;74.50;98314.72;5124042;27;20644;-71
2021/06/03 00:11:36;;;;;;;6.47;6.07;;;;;;;13.43;74.34;98320.19;5120317;27;20224;-71
2021/06/03 00:14:04;;;;;;;6.63;6.13;;;;;;;13.34;74.85;98316.75;5118643;27;20244;-70
2021/06/03 00:16:34;;;;;;;7.10;6.50;;;;;;;13.23;75.25;98317.94;5120799;27;20329;-72
2021/06/03 00:19:04;;;;;;;8.40;7.70;;;;;;;13.32;74.59;98322.22;5117325;27;20316;-72
2021/06/03 00:21:32;;;;;;;8.20;6.10;;;;;;;13.20;75.55;98317.44;5123621;27;20206;-72
2021/06/03 00:23:59;;;;;;;7.03;6.43;;;;;;;13.17;75.26;98319.47;5117534;27;20217;-70
2021/06/03 00:26:29;;;;;;;6.43;5.93;;;;;;;12.95;76.78;98325.53;5125248;27;20568;-72
2021/06/03 00:28:56;;;;;;;6.33;5.83;;;;;;;12.76;77.66;98326.75;5117112;27;20206;-71
2021/06/03 00:31:24;;;;;;;7.43;6.80;;;;;;;12.65;78.80;98323.44;5119350;27;20201;-73
2021/06/03 00:33:51;;;;;;;6.70;6.30;;;;;;;12.61;79.71;98330.09;5116277;27;20232;-71
2021/06/03 00:36:19;;;;;;;7.47;6.63;;;;;;;12.70;79.13;98329.09;5117258;27;20470;-72
2021/06/03 00:38:46;;;;;;;7.63;7.13;;;;;;;12.63;78.85;98328.09;5118660;27;20575;-72
2021/06/03 00:41:14;;;;;;;7.67;7.17;;;;;;;12.58;80.48;98335.75;5121806;27;20201;-71
2021/06/03 00:43:44;;;;;;;7.30;6.80;;;;;;;12.57;79.39;98329.63;5123817;27;20209;-71
2021/06/03 00:46:12;;;;;;;8.13;7.63;;;;;;;12.48;80.67;98327.94;5119592;27;20201;-72
2021/06/03 00:48:40;;;;;;;8.23;7.53;;;;;;;12.42;81.25;98329.47;5118025;27;20242;-72
2021/06/03 00:51:09;;;;;;;8.80;8.20;;;;;;;12.26;82.18;98335.63;5115150;27;20192;-72
2021/06/03 00:53:38;;;;;;;7.40;6.90;;;;;;;12.16;82.97;98327.81;5116943;27;20201;-72
2021/06/03 00:56:06;;;;;;;7.73;7.13;;;;;;;12.13;82.73;98333.44;5114091;27;20225;-71
2021/06/03 00:58:35;;;;;;;7.83;7.13;;;;;;;12.08;83.50;98341.09;5120617;27;20200;-72
2021/06/03 01:01:04;;;;;;;8.07;7.47;;;;;;;12.05;83.31;98337.91;5120136;27;20689;-72
2021/06/03 01:03:32;;;;;;;7.43;6.87;;;;;;;12.05;83.05;98330.78;5113202;27;20588;-71
2021/06/03 01:06:01;;;;;;;7.90;7.23;;;;;;;12.04;83.13;98336.25;5121358;27;20419;-71
2021/06/03 01:08:32;;;;;;;7.57;6.97;;;;;;;11.99;82.98;98336.75;5120543;27;20229;-72
2021/06/03 01:11:04;;;;;;;7.47;6.97;;;;;;;12.10;82.46;98338.25;5123047;27;20205;-72
2021/06/03 01:13:37;;;;;;;7.23;6.63;;;;;;;12.12;81.70;98337.09;5128148;27;20208;-72
2021/06/03 01:16:07;;;;;;;7.30;6.80;;;;;;;12.14;82.00;98340.44;5116756;27;20247;-73
2021/06/03 01:18:36;;;;;;;7.87;7.27;;;;;;;12.17;81.44;98339.28;5124980;27;20204;-72
2021/06/03 01:21:08;;;;;;;8.07;7.47;;;;;;;12.00;82.06;98347.22;5113846;27;20302;-72
2021/06/03 01:23:42;;;;;;;6.90;6.50;;;;;;;12.07;81.89;98347.41;5121389;27;20286;-72
2021/06/03 01:26:12;;;;;;;7.83;7.23;;;;;;;11.91;82.68;98347.34;5118115;27;20200;-71
2021/06/03 01:28:39;;;;;;;8.20;7.40;;;;;;;11.89;83.07;98347.50;5117338;27;20209;-72
2021/06/03 01:31:07;;;;;;;7.20;6.70;;;;;;;11.69;84.51;98353.09;5124718;27;20234;-72
2021/06/03 01:33:41;;;;;;;7.50;7.00;;;;;;;11.61;85.56;98355.75;5119866;27;20245;-71
2021/06/03 01:36:14;;;;;;;8.20;7.43;;;;;;;11.53;85.67;98356.53;5121464;27;20229;-73
2021/06/03 01:38:42;;;;;;;8.13;7.43;;;;;;;11.54;85.84;98362.69;5124449;27;20603;-69
2021/06/03 01:41:12;;;;;;;7.97;7.37;;;;;;;11.62;86.13;98356.59;5119865;27;20208;-72
2021/06/03 01:43:42;;;;;;;8.20;7.60;;;;;;;11.58;86.33;98356.91;5121582;27;20493;-72
2021/06/03 01:46:10;;;;;;;8.93;8.13;;;;;;;11.46;86.43;98358.19;5125893;27;20212;-70
2021/06/03 01:48:38;;;;;;;8.80;7.80;;;;;;;11.50;86.31;98359.53;5117315;27;20193;-70
2021/06/03 01:51:08;;;;;;;7.77;7.20;;;;;;;11.41;87.40;98352.53;5123644;27;20208;-71
2021/06/03 01:53:35;;;;;;;8.23;7.60;;;;;;;11.41;87.46;98355.19;5120969;27;20201;-72
2021/06/03 01:56:05;;;;;;;9.43;8.73;;;;;;;11.51;86.89;98355.88;5121671;27;20227;-72
2021/06/03 01:58:34;;;;;;;8.47;7.87;;;;;;;11.41;87.00;98361.34;5126547;27;20216;-71
2021/06/03 02:01:02;;;;;;;8.30;7.70;;;;;;;11.20;88.84;98361.75;5119184;27;20201;-71
2021/06/03 02:03:31;;;;;;;8.30;7.80;;;;;;;11.17;88.55;98371.84;5122057;27;20370;-73
2021/06/03 02:05:58;;;;;;;7.90;7.30;;;;;;;11.15;89.59;98367.53;5122161;27;20585;-72
2021/06/03 02:08:26;;;;;;;8.60;8.00;;;;;;;11.27;88.49;98373.38;5117212;27;20215;-72
2021/06/03 02:10:54;;;;;;;8.37;7.77;;;;;;;11.08;90.18;98369.16;5115840;27;20220;-73
2021/06/03 02:13:25;;;;;;;9.80;8.90;;;;;;;11.07;89.72;98379.91;5130169;27;20612;-71
2021/06/03 02:15:58;;;;;;;8.80;8.00;;;;;;;11.07;89.78;98369.28;5118939;27;20208;-71
2021/06/03 02:18:30;;;;;;;8.80;8.00;;;;;;;11.15;88.63;98379.94;5119986;27;20212;-71
2021/06/03 02:20:59;;;;;;;8.90;8.10;;;;;;;11.06;89.07;98378.25;5119153;27;20205;-72
2021/06/03 02:23:27;;;;;;;8.17;7.57;;;;;;;11.08;88.26;98376.25;5123753;27;20205;-73
2021/06/03 02:25:58;;;;;;;8.57;7.80;;;;;;;11.14;88.18;98379.13;5120946;27;20201;-71
2021/06/03 02:28:26;;;;;;;9.27;8.53;;;;;;;11.04;88.31;98388.19;5120535;27;20517;-72
2021/06/03 02:30:56;;;;;;;8.40;7.47;;;;;;;10.97;88.95;98378.19;5126674;27;20558;-72
2021/06/03 02:33:24;;;;;;;8.90;8.30;;;;;;;10.82;90.45;98380.59;5118735;27;20207;-71
2021/06/03 02:35:51;;;;;;;8.87;8.37;;;;;;;10.86;89.97;98384.59;5121278;27;20608;-71
2021/06/03 02:38:23;;;;;;;8.37;7.67;;;;;;;10.95;89.31;98388.13;5118041;27;20205;-72
2021/06/03 02:40:52;;;;;;;9.07;8.37;;;;;;;10.97;88.63;98380.84;5128782;27;20200;-71
2021/06/03 02:43:20;;;;;;;8.40;7.60;;;;;;;10.99;88.29;98388.66;5124115;27;20205;-71
2021/06/03 02:45:47;;;;;;;8.80;8.00;;;;;;;10.93;88.83;98394.56;5119480;27;20231;-71
2021/06/03 02:48:16;;;;;;;8.10;7.43;;;;;;;10.80;89.53;98395.00;5122618;27;20251;-71
2021/06/03 02:50:44;;;;;;;9.00;8.20;;;;;;;10.56;92.31;98389.34;5118080;27;20206;-72
2021/06/03 02:53:12;;;;;;;8.70;8.00;;;;;;;10.57;91.32;98384.91;5123537;27;20201;-71
2021/06/03 02:55:40;;;;;;;8.67;7.97;;;;;;;10.46;91.44;98391.28;5119678;27;20218;-72
2021/06/03 02:58:07;;;;;;;7.73;7.03;;;;;;;10.49;91.31;98392.78;5124106;27;20225;-71
2021/06/03 03:00:36;;;;;;;8.90;8.10;;;;;;;10.53;91.31;98391.50;5121444;27;20208;-71
2021/06/03 03:03:05;;;;;;;8.67;7.90;;;;;;;10.79;88.83;98388.00;5115908;27;20201;-71
2021/06/03 03:05:34;;;;;;;8.97;8.27;;;;;;;10.66;89.46;98397.22;5118977;27;20229;-72
2021/06/03 03:08:01;;;;;;;9.10;8.33;;;;;;;10.66;89.21;98393.75;5117519;27;20205;-72
2021/06/03 03:10:31;;;;;;;8.60;7.90;;;;;;;10.51;89.52;98390.81;5124883;27;20276;-71
2021/06/03 03:12:58;;;;;;;8.10;7.60;;;;;;;10.50;90.87;98394.47;5122657;27;20208;-71
2021/06/03 03:15:26;;;;;;;8.17;7.57;;;;;;;10.46;91.47;98398.41;5118342;27;20220;-71
2021/06/03 03:17:54;;;;;;;8.83;8.07;;;;;;;10.41;90.79;98402.31;5112778;27;20222;-70
2021/06/03 03:20:23;;;;;;;9.07;8.17;;;;;;;10.55;89.66;98398.28;5112730;27;20749;-70
2021/06/03 03:22:53;;;;;;;8.23;7.63;;;;;;;10.31;91.70;98395.44;5115934;27;20212;-71
2021/06/03 03:25:22;;;;;;;8.17;7.57;;;;;;;10.33;91.11;98398.75;5117490;27;20635;-70
2021/06/03 03:27:50;;;;;;;7.90;7.30;;;;;;;10.39;89.86;98393.66;5114860;27;20202;-71
2021/06/03 03:30:19;;;;;;;8.10;7.53;;;;;;;10.43;90.32;98404.81;5111617;27;20196;-70
2021/06/03 03:32:47;;;;;;;8.40;7.20;;;;;;;10.35;90.63;98405.56;5120335;27;20850;-70
2021/06/03 03:35:15;;;;;;;9.93;8.50;;;;;;;10.26;90.75;98399.38;5113304;27;20225;-70
2021/06/03 03:37:44;;;;;;;8.50;7.90;;;;;;;10.36;90.47;98403.75;5120243;27;20225;-71
2021/06/03 03:40:15;;;;;;;7.87;7.27;;;;;;;10.38;90.45;98407.88;5123291;27;20673;-69
2021/06/03 03:42:43;;;;;;;7.77;7.27;;;;;;;10.40;89.85;98410.44;5120291;27;20664;-71
2021/06/03 03:45:13;;;;;;;8.03;7.53;;;;;;;10.45;90.27;98407.34;5118235;27;20589;-74
2021/06/03 03:47:40;;;;;;;8.73;8.10;;;;;;;10.47;89.67;98408.00;5114357;27;20536;-73
2021/06/03 03:50:11;;;;;;;9.40;8.57;;;;;;;10.34;90.97;98414.47;5122629;27;20204;-73
2021/06/03 03:52:39;;;;;;;8.60;7.90;;;;;;;10.24;93.42;98414.59;5117101;27;20294;-74
2021/06/03 03:55:08;;;;;;;9.17;8.57;;;;;;;10.26;93.20;98417.06;5115491;27;20224;-72
2021/06/03 03:57:38;;;;;;;9.53;8.70;;;;;;;10.40;92.94;98416.53;5111369;27;20220;-74
2021/06/03 04:00:07;;;;;;;9.17;8.47;;;;;;;10.53;90.70;98410.88;5113390;27;20206;-73
2021/06/03 04:02:34;;;;;;;10.53;9.83;;;;;;;10.54;91.17;98420.47;5117482;27;20209;-72
2021/06/03 04:05:02;;;;;;;9.93;9.17;;;;;;;10.54;91.08;98419.66;5116931;27;20225;-72
2021/06/03 04:07:30;;;;;;;8.80;8.20;;;;;;;10.61;90.88;98428.66;5117881;27;20206;-73
2021/06/03 04:09:57;;;;;;;9.27;8.53;;;;;;;10.63;90.63;98423.22;5110692;27;20216;-72
2021/06/03 04:12:25;;;;;;;9.40;8.70;;;;;;;10.55;91.06;98423.97;5110454;27;20208;-73
2021/06/03 04:14:54;;;;;;;9.50;8.90;;;;;;;10.60;91.91;98429.66;5111033;27;20236;-73
2021/06/03 04:17:21;;;;;;;9.27;8.50;;;;;;;10.53;92.82;98434.72;5118014;27;20225;-72
2021/06/03 04:19:49;;;;;;;9.50;8.90;;;;;;;10.56;92.03;98441.53;5119751;27;20686;-73
2021/06/03 04:22:16;;;;;;;9.40;8.63;;;;;;;10.66;91.00;98438.81;5116834;27;20209;-73
2021/06/03 04:24:43;;;;;;;9.07;8.40;;;;;;;10.75;91.02;98439.69;5117604;27;20225;-74
2021/06/03 04:27:11;;;;;;;9.30;8.70;;;;;;;10.83;89.54;98439.75;5109143;27;20201;-72
2021/06/03 04:29:38;;;;;;;9.23;8.53;;;;;;;10.82;90.75;98438.91;5117825;27;20207;-73
2021/06/03 04:32:08;;;;;;;9.40;8.73;;;;;;;10.99;88.88;98439.88;5116598;27;20205;-71
2021/06/03 04:34:35;;;;;;;9.10;8.40;;;;;;;10.98;88.98;98445.31;5118019;27;20251;-71
2021/06/03 04:37:04;;;;;;;8.53;7.83;;;;;;;10.97;89.32;98439.19;5115302;27;20245;-73
2021/06/03 04:39:32;;;;;;;8.87;8.17;;;;;;;11.21;86.85;98445.66;5118961;27;20220;-72
2021/06/03 04:41:59;;;;;;;9.07;8.47;;;;;;;11.23;87.98;98443.66;5115463;27;20573;-71
2021/06/03 04:44:26;;;;;;;9.07;8.33;;;;;;;11.33;87.95;98458.63;5114540;27;20238;-72
2021/06/03 04:46:54;;;;;;;9.47;8.77;;;;;;;11.54;86.08;98458.25;5120908;27;20224;-72
2021/06/03 04:49:23;;;;;;;8.67;8.07;;;;;;;11.59;84.81;98458.59;5116096;27;20427;-73
2021/06/03 04:51:50;;;;;;;9.13;8.30;;;;;;;11.72;82.81;98461.63;5120210;27;20636;-72
2021/06/03 04:54:18;;;;;;;9.67;8.87;;;;;;;11.84;82.48;98462.19;5114961;27;20227;-72
2021/06/03 04:56:45;;;;;;;8.53;7.83;;;;;;;11.97;83.04;98459.06;5116913;27;21100;-73
2021/06/03 04:59:12;;;;;;;8.23;7.53;;;;;;;12.01;83.40;98459.63;5116931;27;20411;-70
2021/06/03 05:01:41;;;;;;;7.97;7.37;;;;;;;12.14;82.44;98467.13;5115357;27;20198;-74
2021/06/03 05:04:09;;;;;;;7.60;7.10;;;;;;;12.20;81.36;98466.47;5117101;27;20229;-71
2021/06/03 05:06:38;;;;;;;8.40;7.70;;;;;;;12.38;81.86;98478.78;5122542;27;20232;-72
2021/06/03 05:09:05;;;;;;;8.43;7.83;;;;;;;12.52;81.86;98470.19;5119325;27;20215;-72
2021/06/03 05:11:33;;;;;;;8.87;8.27;;;;;;;12.59;81.55;98475.66;5117729;27;20205;-72
2021/06/03 05:14:00;;;;;;;8.03;7.43;;;;;;;12.66;79.35;98475.84;5120212;27;20267;-72
2021/06/03 05:16:28;;;;;;;7.83;7.23;;;;;;;12.77;79.44;98480.81;5118799;27;20563;-72
2021/06/03 05:18:55;;;;;;;7.97;7.47;;;;;;;12.84;79.52;98476.47;5117428;27;20248;-71
2021/06/03 05:21:23;;;;;;;8.63;7.90;;;;;;;13.26;76.36;98482.59;5117116;27;20590;-71
2021/06/03 05:23:51;;;;;;;8.30;7.50;;;;;;;13.21;76.96;98486.75;5114351;27;20707;-70
2021/06/03 05:26:19;;;;;;;7.63;7.13;;;;;;;13.21;76.97;98484.94;5122170;27;20205;-72
2021/06/03 05:28:46;;;;;;;10.47;7.70;;;;;;;13.40;75.40;98482.91;5121402;27;20197;-72
2021/06/03 05:31:14;;;;;;;7.80;7.30;;;;;;;13.52;74.86;98478.06;5118954;27;20209;-71
2021/06/03 05:33:41;;;;;;;6.77;6.37;;;;;;;13.65;74.81;98490.84;5113838;27;20208;-72
2021/06/03 05:36:09;;;;;;;7.40;6.80;;;;;;;13.82;73.62;98495.09;5119517;27;20201;-72
2021/06/03 05:38:36;;;;;;;6.70;5.80;;;;;;;14.00;71.63;98491.38;5115536;27;20607;-71
2021/06/03 05:41:05;;;;;;;6.83;6.33;;;;;;;14.06;71.40;98493.34;5120357;27;20192;-71
2021/06/03 05:43:32;;;;;;;5.77;5.37;;;;;;;14.15;70.85;98492.28;5119062;27;20212;-72
2021/06/03 05:46:00;;;;;;;5.73;5.30;;;;;;;14.33;69.97;98491.22;5116889;27;20649;-71
2021/06/03 05:48:27;;;;;;;6.43;5.90;;;;;;;14.41;70.53;98496.50;5118572;27;20258;-73
2021/06/03 05:50:55;;;;;;;6.20;5.70;;;;;;;14.45;70.21;98500.47;5116320;27;20211;-72
2021/06/03 05:53:22;;;;;;;6.37;5.60;;;;;;;14.73;69.24;98499.13;5115803;27;20197;-72
2021/06/03 05:55:50;;;;;;;6.23;5.73;;;;;;;14.91;68.42;98501.50;5111303;27;20212;-72
2021/06/03 05:58:19;;;;;;;6.33;5.50;;;;;;;15.09;66.89;98503.84;5113775;27;20238;-72
2021/06/03 06:00:46;;;;;;;6.60;6.10;;;;;;;15.14;67.44;98508.66;5118182;27;20209;-71
2021/06/03 06:03:16;;;;;;;5.73;5.33;;;;;;;15.18;66.54;98518.78;5121270;27;20209;-72
2021/06/03 06:06:08;;;;;;;6.47;5.87;;;;;;;15.43;65.54;98513.19;5116609;27;20239;-69
2021/06/03 06:08:36;;;;;;;6.03;4.77;;;;;;;15.62;64.77;98513.69;5118964;27;20232;-71
2021/06/03 06:11:03;;;;;;;4.63;4.33;;;;;;;16.00;62.50;98516.28;5122639;27;20497;-71
2021/06/03 06:13:32;;;;;;;5.20;4.57;;;;;;;16.05;62.17;98516.53;5116411;27;20547;-71
2021/06/03 06:16:00;;;;;;;5.20;4.80;;;;;;;16.16;61.70;98515.25;5124569;27;20431;-73
2021/06/03 06:18:27;;;;;;;4.93;4.63;;;;;;;16.30;61.80;98516.22;5125060;27;20221;-72
2021/06/03 06:20:55;;;;;;;4.83;4.33;;;;;;;16.35;61.81;98524.50;5123041;27;20213;-71
2021/06/03 06:23:22;;;;;;;4.83;4.53;;;;;;;16.66;61.34;98519.03;5123643;27;20491;-72
2021/06/03 06:25:50;;;;;;;5.03;4.63;;;;;;;16.85;60.80;98520.25;5119361;27;20219;-73
2021/06/03 06:28:17;;;;;;;4.97;4.57;;;;;;;17.05;58.40;98517.81;5127511;27;20207;-72
2021/06/03 06:30:46;;;;;;;4.23;4.00;;;;;;;17.11;58.37;98527.75;5128227;27;20202;-73
2021/06/03 06:33:14;;;;;;;5.30;4.17;;;;;;;17.32;57.17;98523.38;5127107;27;20218;-71
2021/06/03 06:35:44;;;;;;;4.10;3.77;;;;;;;17.42;55.87;98523.84;5128823;27;20224;-72
2021/06/03 06:38:12;;;;;;;3.67;3.30;;;;;;;17.61;56.21;98527.69;5129595;27;20216;-73
2021/06/03 06:40:39;;;;;;;4.30;4.00;;;;;;;17.77;53.80;98523.84;5117265;27;20205;-74
2021/06/03 06:43:06;;;;;;;3.70;3.50;;;;;;;18.01;53.68;98528.97;5126725;27;20200;-70
2021/06/03 06:45:37;;;;;;;4.33;4.03;;;;;;;18.00;53.65;98529.97;5121331;27;20217;-72
2021/06/03 06:48:07;;;;;;;4.23;3.97;;;;;;;18.18;53.12;98540.16;5131953;27;20206;-73
2021/06/03 06:50:36;;;;;;;4.23;3.83;;;;;;;18.22;53.40;98539.56;5123937;27;20208;-72
2021/06/03 06:53:04;;;;;;;4.57;4.17;;;;;;;18.31;52.05;98542.06;5118816;27;20208;-72
2021/06/03 06:55:33;;;;;;;4.30;3.93;;;;;;;18.49;52.26;98542.38;5121492;27;20260;-72
2021/06/03 06:58:01;;;;;;;4.90;4.10;;;;;;;18.55;52.10;98543.38;5122597;27;20225;-72
2021/06/03 07:00:31;;;;;;;4.37;4.00;;;;;;;18.78;52.34;98542.22;5130009;27;20208;-72
2021/06/03 07:02:58;;;;;;;4.70;3.87;;;;;;;18.83;50.98;98533.56;5120967;27;20438;-72
2021/06/03 07:05:27;;;;;;;5.00;4.03;;;;;;;18.95;50.80;98535.44;5126117;27;20699;-72
2021/06/03 07:07:55;;;;;;;4.40;4.00;;;;;;;19.06;50.08;98538.56;5125882;27;20194;-72
2021/06/03 07:10:23;;;;;;;4.97;4.67;;;;;;;19.03;50.55;98541.66;5126832;27;20217;-73
2021/06/03 07:12:51;;;;;;;5.73;4.23;;;;;;;19.24;49.54;98540.63;5126367;27;20205;-72
2021/06/03 07:15:20;;;;;;;4.80;4.37;;;;;;;19.27;50.17;98542.91;5127431;27;20612;-72
2021/06/03 07:17:50;;;;;;;4.30;4.00;;;;;;;19.42;49.91;98541.84;5123677;27;20501;-72
2021/06/03 07:20:19;;;;;;;4.40;4.10;;;;;;;19.66;48.51;98545.75;5125582;27;20623;-71
2021/06/03 07:22:51;;;;;;;4.77;3.90;;;;;;;19.63;48.89;98538.94;5118904;27;20222;-73
2021/06/03 07:25:21;;;;;;;5.77;4.10;;;;;;;19.75;48.34;98536.44;5125821;27;20227;-73
2021/06/03 07:27:49;;;;;;;5.13;4.67;;;;;;;19.72;48.49;98538.72;5132649;27;20703;-73
2021/06/03 07:30:19;;;;;;;4.30;4.00;;;;;;;19.75;48.36;98536.44;5119661;27;20205;-72
2021/06/03 07:32:46;;;;;;;4.33;3.93;;;;;;;19.89;48.08;98537.25;5127964;27;20391;-71
2021/06/03 07:35:15;;;;;;;4.40;4.07;;;;;;;20.00;49.00;98537.66;5126121;27;20220;-73
2021/06/03 07:37:45;;;;;;;7.27;4.03;;;;;;;20.17;48.00;98536.13;5127841;27;20205;-73
2021/06/03 07:40:15;;;;;;;5.87;4.40;;;;;;;20.23;48.83;98537.16;5126675;27;20984;-73
2021/06/03 07:42:46;;;;;;;6.53;4.00;;;;;;;20.57;49.48;98539.66;5127800;27;20727;-72
2021/06/03 07:45:16;;;;;;;4.07;3.77;;;;;;;20.51;46.66;98541.38;5122875;27;20402;-73
2021/06/03 07:47:44;;;;;;;3.90;3.70;;;;;;;20.71;47.09;98537.72;5119323;27;20204;-72
2021/06/03 07:50:14;;;;;;;4.50;4.10;;;;;;;20.94;45.88;98527.25;5115439;27;20202;-70
2021/06/03 07:52:42;;;;;;;4.37;3.97;;;;;;;20.93;46.69;98532.84;5123642;27;20200;-71
2021/06/03 07:55:12;;;;;;;4.13;3.83;;;;;;;21.07;46.09;98533.56;5116620;27;20802;-71
2021/06/03 07:57:41;;;;;;;3.83;3.53;;;;;;;21.17;45.52;98527.69;5125621;27;20266;-72
2021/06/03 08:00:11;;;;;;;4.47;3.80;;;;;;;21.11;45.77;98524.84;5120256;27;20209;-72
2021/06/03 08:02:40;;;;;;;4.17;3.87;;;;;;;21.35;45.01;98530.41;5121265;27;20593;-72
2021/06/03 08:05:08;;;;;;;6.10;4.30;;;;;;;21.25;46.12;98530.94;5119080;27;20225;-73
2021/06/03 08:07:35;;;;;;;3.90;3.70;;;;;;;21.71;44.45;98530.75;5129893;27;20209;-72
2021/06/03 08:10:04;;;;;;;5.07;3.47;;;;;;;21.66;44.75;98528.72;5121849;27;20211;-74
2021/06/03 08:12:31;;;;;;;3.33;3.13;;;;;;;21.62;44.27;98530.19;5116131;27;20205;-72
2021/06/03 08:15:00;;;;;;;3.83;3.57;;;;;;;21.83;44.20;98528.13;5125270;27;20700;-71
2021/06/03 08:17:27;;;;;;;3.67;3.47;;;;;;;22.10;45.32;98525.94;5122376;27;20208;-71
2021/06/03 08:19:55;;;;;;;4.03;3.50;;;;;;;22.18;44.67;98530.22;5125538;27;20247;-72
2021/06/03 08:22:23;;;;;;;3.87;3.67;;;;;;;22.39;43.58;98530.78;5112425;27;20685;-73
2021/06/03 08:24:50;;;;;;;3.40;3.10;;;;;;;22.42;43.14;98530.31;5120885;27;20224;-74
2021/06/03 08:27:17;;;;;;;3.73;3.53;;;;;;;22.44;42.51;98533.63;5120779;27;20574;-73
2021/06/03 08:29:45;;;;;;;4.13;3.77;;;;;;;22.55;42.51;98526.66;5118757;27;20228;-73
2021/06/03 08:32:14;;;;;;;3.47;3.23;;;;;;;22.81;40.75;98530.84;5120165;27;20201;-72
2021/06/03 08:34:41;;;;;;;3.43;3.13;;;;;;;22.86;40.21;98524.75;5125131;27;20631;-72
2021/06/03 08:37:09;;;;;;;3.50;3.30;;;;;;;22.72;41.04;98524.13;5114856;27;20198;-71
2021/06/03 08:39:36;;;;;;;4.00;3.63;;;;;;;22.81;42.06;98527.34;5119441;27;20747;-71
2021/06/03 08:42:05;;;;;;;5.73;3.67;;;;;;;22.88;42.03;98516.41;5116527;27;20203;-70
2021/06/03 08:44:32;;;;;;;3.67;3.40;;;;;;;23.25;40.58;98522.50;5122198;27;20235;-69
2021/06/03 08:46:59;;;;;;;4.03;3.67;;;;;;;23.24;39.81;98522.69;5124693;27;20432;-69
2021/06/03 08:49:28;;;;;;;4.10;3.80;;;;;;;23.23;40.31;98521.03;5120754;27;20240;-69
2021/06/03 08:52:02;;;;;;;4.87;3.87;;;;;;;23.40;39.82;98519.34;5121818;27;20201;-68
2021/06/03 08:54:32;;;;;;;3.77;3.47;;;;;;;23.53;39.10;98515.56;5130143;27;20225;-68
2021/06/03 08:56:59;;;;;;;3.80;3.60;;;;;;;23.52;39.99;98526.63;5114823;27;20294;-70
2021/06/03 08:59:27;;;;;;;3.37;3.17;;;;;;;23.53;39.50;98522.84;5124456;27;20230;-69
2021/06/03 09:01:54;;;;;;;5.20;3.20;;;;;;;23.81;37.16;98522.09;5120225;27;20210;-68
2021/06/03 09:04:22;;;;;;;3.30;3.10;;;;;;;23.91;37.08;98521.50;5117186;27;20343;-68
2021/06/03 09:06:51;;;;;;;3.23;3.03;;;;;;;23.73;38.26;98516.25;5124134;27;20796;-71
2021/06/03 09:09:24;;;;;;;3.70;3.37;;;;;;;23.95;39.09;98519.97;5119578;27;20202;-69
2021/06/03 09:12:12;;;;;;;3.87;3.50;;;;;;;24.28;37.76;98514.97;5113117;27;20664;-72
2021/06/03 09:14:40;;;;;;;3.30;3.10;;;;;;;24.39;37.24;98526.81;5120378;27;20402;-70
2021/06/03 09:17:09;;;;;;;3.70;3.40;;;;;;;24.36;37.41;98520.00;5130325;27;20289;-68
2021/06/03 09:19:50;;;;;;;3.77;3.47;;;;;;;24.47;36.71;98520.19;5122084;27;20220;-72
2021/06/03 09:22:37;;;;;;;3.57;3.27;;;;;;;24.47;36.19;98517.47;5114906;27;20208;-69
2021/06/03 09:25:31;;;;;;;3.33;3.13;;;;;;;24.64;36.68;98525.66;5127762;27;20219;-70
2021/06/03 09:28:18;;;;;;;3.33;3.13;;;;;;;24.81;35.77;98520.28;5121527;27;20203;-68
2021/06/03 09:31:03;;;;;;;3.60;3.33;;;;;;;24.53;36.52;98522.75;5120909;27;20203;-72
2021/06/03 09:34:04;;;;;;;4.33;3.50;;;;;;;24.90;35.06;98520.72;5108545;27;20223;-71
2021/06/03 09:36:39;;;;;;;5.07;3.50;;;;;;;24.82;34.45;98517.34;5117470;27;20218;-71
2021/06/03 09:39:17;;;;;;;3.57;3.27;;;;;;;24.83;34.14;98521.72;5122549;27;20207;-70
2021/06/03 09:41:47;;;;;;;3.37;3.17;;;;;;;24.95;34.77;98518.91;5115402;27;20302;-72
2021/06/03 09:44:20;;;;;;;3.53;3.27;;;;;;;25.21;34.67;98513.09;5126210;27;20277;-72
2021/06/03 09:46:53;;;;;;;3.10;2.90;;;;;;;25.20;32.75;98512.25;5118540;27;20758;-72
2021/06/03 09:49:26;;;;;;;4.97;3.63;;;;;;;25.18;33.70;98508.13;5127165;27;20209;-75
2021/06/03 09:51:56;;;;;;;3.37;3.17;;;;;;;25.37;33.46;98509.53;5121775;27;20497;-72
2021/06/03 09:54:26;;;;;;;3.43;3.23;;;;;;;25.04;32.68;98510.38;5118217;27;20224;-72
2021/06/03 09:56:56;;;;;;;3.20;3.00;;;;;;;25.13;34.31;98512.41;5115746;27;20805;-73
2021/06/03 09:59:25;;;;;;;3.73;3.43;;;;;;;25.27;31.91;98510.19;5121204;27;20220;-74
2021/06/03 10:01:56;;;;;;;3.20;3.00;;;;;;;25.50;31.89;98516.53;5115386;27;20635;-74
2021/06/03 10:04:26;;;;;;;2.90;2.80;;;;;;;25.50;31.89;98510.28;5118151;27;20227;-72
2021/06/03 10:06:59;;;;;;;3.90;3.30;;;;;;;25.77;31.91;98499.53;5115194;27;20208;-71
2021/06/03 10:10:03;;;;;;;2.90;2.80;;;;;;;25.75;30.29;98500.84;5117311;27;20219;-72
2021/06/03 10:12:33;;;;;;;2.67;2.47;;;;;;;25.78;31.13;98500.34;5116092;27;20275;-73
2021/06/03 10:15:05;;;;;;;2.97;2.70;;;;;;;25.87;30.27;98498.84;5115692;27;20367;-71
2021/06/03 10:17:34;;;;;;;3.50;3.20;;;;;;;25.90;31.32;98503.75;5118141;27;20227;-71
2021/06/03 10:20:06;;;;;;;3.13;2.93;;;;;;;25.76;30.13;98497.91;5115179;27;20218;-70
2021/06/03 10:22:35;;;;;;;3.17;2.87;;;;;;;26.04;31.21;98500.69;5117055;27;20287;-69
2021/06/03 10:25:10;;;;;;;3.20;2.93;;;;;;;26.13;30.98;98505.41;5115589;27;21007;-71
2021/06/03 10:27:39;;;;;;;3.10;2.90;;;;;;;26.17;29.85;98500.31;5120888;27;20291;-72
2021/06/03 10:30:11;;;;;;;2.97;2.47;;;;;;;26.09;30.20;98506.97;5118855;27;20205;-71
2021/06/03 10:32:38;;;;;;;4.30;3.17;;;;;;;26.28;30.19;98499.34;5115611;27;20203;-70
2021/06/03 10:35:08;;;;;;;3.13;2.93;;;;;;;25.95;29.71;98500.28;5113026;27;20737;-69
2021/06/03 10:37:37;;;;;;;6.70;2.60;;;;;;;26.59;29.03;98507.81;5119841;27;20198;-70
2021/06/03 10:40:09;;;;;;;4.83;3.37;;;;;;;26.87;27.47;98511.38;5117104;27;20226;-69
2021/06/03 10:42:37;;;;;;;3.63;3.27;;;;;;;27.88;26.47;98499.81;5122553;27;20302;-68
2021/06/03 10:45:07;;;;;;;4.70;3.00;;;;;;;27.60;27.18;98501.03;5093921;27;20716;-65
2021/06/03 10:47:35;;;;;;;3.83;3.53;;;;;;;28.43;25.70;98494.03;5078389;28;20202;-69
2021/06/03 10:50:07;;;;;;;3.20;3.00;;;;;;;28.70;26.77;98483.97;5081636;28;20287;-69
2021/06/03 10:52:35;;;;;;;3.13;2.90;;;;;;;29.06;27.09;98494.09;5089511;28;20292;-68
2021/06/03 10:55:05;;;;;;;2.90;2.80;;;;;;;29.73;25.17;98489.34;5079824;28;20488;-70
2021/06/03 10:57:51;;;;;;;2.87;2.67;;;;;;;29.32;26.20;98493.00;5079973;28;20284;-68
2021/06/03 11:00:25;;;;;;;2.80;2.67;;;;;;;28.87;25.39;98487.28;5084451;28;20223;-68
2021/06/03 11:02:55;;;;;;;2.90;2.70;;;;;;;28.97;24.22;98486.47;5081148;28;20391;-68
2021/06/03 11:05:26;;;;;;;5.20;3.20;;;;;;;29.98;23.62;98481.34;5078770;28;20224;-70
2021/06/03 11:07:54;;;;;;;3.50;2.97;;;;;;;30.51;22.59;98483.56;5085599;28;20199;-71
2021/06/03 11:10:26;;;;;;;3.60;3.30;;;;;;;30.82;22.53;98486.06;5075574;28;20216;-65
2021/06/03 11:13:16;;;;;;;2.85;2.47;;;;;;;29.30;24.99;98477.97;5071468;28;20209;-66
2021/06/03 11:16:03;;;;;;;2.37;2.27;;;;;;;30.33;22.29;98485.84;5071910;28;21279;-69
2021/06/03 11:19:07;;;;;;;3.10;2.80;;;;;;;28.88;25.32;98474.47;5076570;28;20652;-68
2021/06/03 11:21:55;;;;;;;2.50;2.40;;;;;;;29.69;24.09;98482.00;5076968;28;20214;-68
2021/06/03 11:25:02;;;;;;;4.33;3.57;;;;;;;29.72;23.17;98476.78;5078068;28;20224;-66
2021/06/03 11:27:39;;;;;;;2.97;2.83;;;;;;;29.82;23.74;98473.22;5078387;28;20592;-67
2021/06/03 11:30:13;;;;;;;3.47;3.17;;;;;;;30.04;23.48;98474.78;5097541;28;20226;-68
2021/06/03 11:32:43;;;;;;;2.80;2.67;;;;;;;30.15;23.25;98479.09;5098335;28;20744;-68
2021/06/03 11:35:12;;;;;;;2.63;2.53;;;;;;;30.00;22.89;98463.59;5090584;28;20231;-68
2021/06/03 11:37:46;;;;;;;3.73;2.87;;;;;;;29.31;24.31;98468.69;5093878;28;20195;-69
2021/06/03 11:40:17;;;;;;;2.83;2.63;;;;;;;29.72;22.27;98467.78;5089582;28;20248;-65
2021/06/03 11:42:46;;;;;;;3.50;2.60;;;;;;;29.17;25.47;98461.06;5094487;28;20832;-66
2021/06/03 11:45:21;;;;;;;2.70;2.40;;;;;;;29.28;22.42;98458.31;5092484;28;20233;-66
2021/06/03 11:48:20;;;;;;;3.00;2.80;;;;;;;29.53;22.10;98462.13;5096607;28;20203;-68